createdAt,value
2017-12-23T00:01:24.014Z,20.83
2017-12-23T00:03:49.803Z,21.13
2017-12-23T00:06:15.555Z,17.67
2017-12-23T00:08:41.298Z,18.53
2017-12-23T00:11:07.039Z,22.43
2017-12-23T00:13:33.066Z,18.03
2017-12-23T00:15:58.827Z,20.50
2017-12-23T00:18:24.548Z,18.23
2017-12-23T00:20:50.292Z,20.67
2017-12-23T00:23:16.031Z,17.83
2017-12-23T00:25:41.783Z,17.53
2017-12-23T00:28:07.523Z,17.97
2017-12-23T00:33:05.631Z,17.33
2017-12-23T00:35:32.399Z,18.17
2017-12-23T00:37:58.134Z,18.15
2017-12-23T00:40:23.911Z,20.67
2017-12-23T00:42:49.667Z,20.60
2017-12-23T00:45:15.402Z,23.70
2017-12-23T00:47:41.164Z,18.80
2017-12-23T00:50:07.294Z,21.47
2017-12-23T00:52:33.069Z,21.10
2017-12-23T00:54:58.819Z,23.10
2017-12-23T00:57:24.579Z,24.70
2017-12-23T00:59:50.360Z,26.03
2017-12-23T01:02:16.122Z,27.97
2017-12-23T01:04:41.875Z,27.07
2017-12-23T01:07:07.667Z,24.53
2017-12-23T01:09:33.401Z,27.60
2017-12-23T01:11:59.134Z,29.20
2017-12-23T01:14:24.885Z,29.50
2017-12-23T01:16:50.639Z,31.60
2017-12-23T01:19:16.403Z,31.47
2017-12-23T01:21:42.158Z,30.10
2017-12-23T01:24:07.914Z,27.33
2017-12-23T01:26:33.650Z,30.13
2017-12-23T01:28:59.425Z,29.23
2017-12-23T01:31:25.163Z,30.80
2017-12-23T01:33:50.936Z,30.57
2017-12-23T01:36:16.712Z,31.40
2017-12-23T01:38:42.505Z,31.83
2017-12-23T01:41:09.000Z,35.87
2017-12-23T01:43:34.779Z,32.42
2017-12-23T01:46:00.546Z,35.93
2017-12-23T01:48:32.952Z,40.10
2017-12-23T01:50:58.798Z,43.97
2017-12-23T01:53:24.538Z,39.70
2017-12-23T01:55:50.299Z,46.80
2017-12-23T01:58:16.101Z,45.73
2017-12-23T02:00:41.861Z,49.07
2017-12-23T02:03:07.713Z,45.37
2017-12-23T02:05:33.482Z,47.13
2017-12-23T02:07:59.230Z,51.53
2017-12-23T02:10:25.062Z,49.40
2017-12-23T02:12:50.805Z,55.40
2017-12-23T02:15:16.556Z,51.87
2017-12-23T02:17:42.324Z,54.57
2017-12-23T02:20:08.142Z,49.23
2017-12-23T02:22:33.894Z,56.07
2017-12-23T02:24:59.966Z,50.90
2017-12-23T02:27:25.720Z,45.88
2017-12-23T02:29:51.463Z,47.23
2017-12-23T02:32:17.211Z,52.40
2017-12-23T02:34:42.965Z,56.50
2017-12-23T02:37:08.759Z,51.23
2017-12-23T02:39:34.498Z,58.03
2017-12-23T02:42:00.264Z,59.27
2017-12-23T02:44:26.028Z,65.57
2017-12-23T02:46:51.794Z,75.53
2017-12-23T02:49:17.564Z,74.73
2017-12-23T02:51:43.330Z,71.80
2017-12-23T02:54:09.084Z,83.07
2017-12-23T02:56:34.839Z,82.70
2017-12-23T02:59:00.586Z,88.47
2017-12-23T03:01:26.434Z,99.60
2017-12-23T03:03:52.238Z,80.17
2017-12-23T03:06:17.984Z,101.67
2017-12-23T03:08:43.755Z,110.03
2017-12-23T03:11:09.500Z,96.47
2017-12-23T03:13:35.255Z,83.97
2017-12-23T03:16:01.010Z,89.27
2017-12-23T03:18:26.772Z,68.10
2017-12-23T03:20:52.555Z,63.47
2017-12-23T03:23:18.326Z,64.67
2017-12-23T03:25:44.067Z,74.83
2017-12-23T03:28:09.851Z,71.70
2017-12-23T03:30:35.595Z,66.77
2017-12-23T03:33:01.354Z,64.27
2017-12-23T03:35:27.111Z,63.77
2017-12-23T03:37:52.868Z,67.07
2017-12-23T03:40:19.614Z,57.57
2017-12-23T03:42:45.382Z,56.83
2017-12-23T03:45:11.135Z,49.93
2017-12-23T03:47:36.898Z,43.27
2017-12-23T03:50:02.672Z,49.43
2017-12-23T03:52:28.417Z,46.53
2017-12-23T03:54:54.187Z,45.93
2017-12-23T03:57:19.944Z,47.20
2017-12-23T03:59:45.706Z,34.97
2017-12-23T04:02:11.458Z,40.23
2017-12-23T04:04:37.215Z,44.40
2017-12-23T04:07:02.943Z,40.40
2017-12-23T04:09:28.697Z,42.47
2017-12-23T04:11:54.439Z,43.80
2017-12-23T04:14:20.187Z,43.50
2017-12-23T04:16:45.932Z,41.53
2017-12-23T04:19:11.668Z,41.00
2017-12-23T04:21:37.406Z,47.47
2017-12-23T04:24:03.139Z,40.30
2017-12-23T04:26:28.891Z,40.60
2017-12-23T04:28:54.630Z,46.33
2017-12-23T04:31:20.379Z,39.17
2017-12-23T04:33:46.128Z,33.63
2017-12-23T04:36:11.891Z,35.90
2017-12-23T04:38:37.646Z,35.93
2017-12-23T04:41:03.406Z,34.33
2017-12-23T04:43:29.143Z,35.03
2017-12-23T04:45:54.890Z,33.70
2017-12-23T04:48:20.638Z,35.30
2017-12-23T04:50:46.399Z,38.63
2017-12-23T04:53:12.156Z,37.77
2017-12-23T04:55:37.920Z,26.03
2017-12-23T04:58:03.683Z,31.93
2017-12-23T05:00:29.460Z,34.30
2017-12-23T05:02:55.206Z,29.07
2017-12-23T05:05:20.960Z,28.37
2017-12-23T05:07:46.730Z,31.60
2017-12-23T05:10:12.475Z,31.70
2017-12-23T05:12:38.227Z,22.70
2017-12-23T05:15:04.000Z,29.03
2017-12-23T05:17:29.762Z,24.10
2017-12-23T05:19:55.518Z,27.73
2017-12-23T05:22:21.285Z,22.63
2017-12-23T05:24:47.052Z,27.83
2017-12-23T05:27:12.820Z,26.57
2017-12-23T05:29:38.572Z,23.00
2017-12-23T05:32:04.327Z,26.57
2017-12-23T05:34:30.071Z,21.00
2017-12-23T05:36:55.814Z,24.57
2017-12-23T05:39:21.567Z,16.13
2017-12-23T05:41:47.331Z,21.40
2017-12-23T05:44:13.072Z,16.03
2017-12-23T05:46:38.819Z,21.03
2017-12-23T05:49:04.579Z,20.97
2017-12-23T05:51:30.334Z,16.07
2017-12-23T05:53:56.095Z,15.60
2017-12-23T05:56:21.840Z,16.83
2017-12-23T05:58:47.587Z,21.80
2017-12-23T06:01:13.327Z,19.33
2017-12-23T06:03:39.102Z,15.30
2017-12-23T06:06:04.859Z,13.00
2017-12-23T06:08:30.626Z,17.23
2017-12-23T06:10:56.387Z,17.33
2017-12-23T06:13:22.155Z,13.83
2017-12-23T06:15:47.892Z,14.47
2017-12-23T06:18:13.650Z,17.43
2017-12-23T06:20:39.395Z,16.63
2017-12-23T06:23:05.159Z,11.87
2017-12-23T06:25:30.907Z,18.57
2017-12-23T06:27:56.646Z,12.57
2017-12-23T06:30:22.417Z,14.83
2017-12-23T06:32:48.171Z,16.33
2017-12-23T06:35:13.922Z,14.27
2017-12-23T06:37:39.672Z,13.83
2017-12-23T06:40:05.432Z,16.17
2017-12-23T06:42:31.204Z,17.87
2017-12-23T06:44:56.978Z,16.17
2017-12-23T06:47:22.730Z,18.23
2017-12-23T06:49:48.478Z,20.00
2017-12-23T06:52:14.224Z,19.97
2017-12-23T06:54:39.978Z,17.77
2017-12-23T06:57:05.732Z,20.70
2017-12-23T06:59:31.486Z,29.50
2017-12-23T07:01:57.239Z,27.03
2017-12-23T07:04:22.992Z,28.33
2017-12-23T07:06:48.761Z,22.77
2017-12-23T07:09:14.532Z,27.03
2017-12-23T07:11:40.280Z,27.83
2017-12-23T07:14:06.023Z,37.43
2017-12-23T07:16:31.804Z,30.77
2017-12-23T07:18:57.559Z,31.87
2017-12-23T07:21:23.328Z,30.13
2017-12-23T07:23:49.084Z,24.07
2017-12-23T07:26:14.847Z,34.63
2017-12-23T07:28:40.609Z,30.67
2017-12-23T07:31:06.383Z,30.93
2017-12-23T07:33:32.135Z,34.43
2017-12-23T07:35:57.903Z,28.60
2017-12-23T07:38:23.664Z,30.30
2017-12-23T07:40:49.457Z,35.57
2017-12-23T07:43:15.191Z,35.83
2017-12-23T07:45:40.951Z,40.03
2017-12-23T07:48:06.715Z,38.93
2017-12-23T07:50:32.472Z,38.10
2017-12-23T07:52:58.224Z,40.87
2017-12-23T07:55:24.004Z,36.53
2017-12-23T07:57:49.809Z,34.87
2017-12-23T08:00:15.555Z,39.50
2017-12-23T08:02:41.336Z,32.47
2017-12-23T08:05:07.105Z,44.30
2017-12-23T08:07:32.872Z,42.57
2017-12-23T08:09:58.623Z,44.50
2017-12-23T08:12:24.379Z,42.53
2017-12-23T08:14:50.125Z,33.70
2017-12-23T08:17:15.878Z,44.37
2017-12-23T08:19:41.656Z,32.40
2017-12-23T08:22:07.419Z,31.07
2017-12-23T08:24:33.178Z,35.13
2017-12-23T08:26:58.939Z,30.43
2017-12-23T08:29:24.691Z,30.77
2017-12-23T08:31:50.451Z,31.67
2017-12-23T08:34:16.196Z,26.97
2017-12-23T08:36:41.968Z,29.23
2017-12-23T08:39:07.755Z,30.43
2017-12-23T08:41:33.507Z,33.93
2017-12-23T08:43:59.267Z,31.07
2017-12-23T08:46:25.023Z,40.63
2017-12-23T08:48:50.771Z,31.63
2017-12-23T08:51:16.515Z,28.33
2017-12-23T08:53:42.271Z,39.13
2017-12-23T08:56:08.024Z,33.80
2017-12-23T08:58:33.788Z,42.20
2017-12-23T09:00:59.541Z,35.53
2017-12-23T09:03:25.315Z,28.40
2017-12-23T09:05:51.071Z,34.23
2017-12-23T09:08:16.830Z,35.67
2017-12-23T09:10:42.594Z,40.97
2017-12-23T09:13:08.343Z,36.30
2017-12-23T09:15:34.102Z,30.37
2017-12-23T09:17:59.851Z,30.93
2017-12-23T09:20:25.623Z,31.90
2017-12-23T09:22:51.386Z,37.93
2017-12-23T09:25:17.155Z,35.17
2017-12-23T09:27:42.915Z,33.23
2017-12-23T09:30:08.687Z,30.37
2017-12-23T09:32:34.426Z,29.67
2017-12-23T09:35:00.183Z,32.47
2017-12-23T09:37:25.939Z,29.00
2017-12-23T09:39:51.700Z,30.30
2017-12-23T09:42:17.451Z,34.53
2017-12-23T09:44:43.195Z,24.83
2017-12-23T09:47:08.944Z,32.17
2017-12-23T09:49:34.699Z,33.13
2017-12-23T09:52:00.447Z,35.87
2017-12-23T09:54:26.212Z,37.57
2017-12-23T09:56:51.971Z,40.67
2017-12-23T09:59:17.723Z,32.40
2017-12-23T10:01:43.467Z,43.53
2017-12-23T10:04:09.219Z,40.17
2017-12-23T10:06:34.971Z,39.47
2017-12-23T10:09:00.727Z,41.87
2017-12-23T10:11:26.502Z,52.77
2017-12-23T10:13:52.256Z,38.03
2017-12-23T10:16:18.002Z,51.43
2017-12-23T10:18:43.750Z,50.30
2017-12-23T10:21:09.575Z,44.10
2017-12-23T10:23:35.345Z,51.00
2017-12-23T10:26:01.075Z,39.37
2017-12-23T10:28:26.819Z,42.50
2017-12-23T10:30:52.566Z,45.70
2017-12-23T10:33:18.316Z,47.90
2017-12-23T10:35:44.068Z,49.13
2017-12-23T10:38:16.791Z,48.20
2017-12-23T10:40:42.554Z,49.55
2017-12-23T10:43:08.298Z,46.73
2017-12-23T10:45:34.064Z,40.13
2017-12-23T10:47:59.828Z,40.90
2017-12-23T10:50:25.575Z,43.43
2017-12-23T10:52:51.340Z,48.07
2017-12-23T10:55:17.100Z,42.13
2017-12-23T10:57:42.875Z,44.30
2017-12-23T11:00:08.628Z,41.97
2017-12-23T11:02:34.384Z,40.30
2017-12-23T11:05:00.140Z,44.17
2017-12-23T11:07:25.902Z,38.93
2017-12-23T11:09:51.659Z,38.07
2017-12-23T11:12:17.412Z,37.60
2017-12-23T11:14:43.160Z,39.37
2017-12-23T11:17:08.926Z,32.07
2017-12-23T11:19:34.665Z,38.40
2017-12-23T11:22:00.418Z,33.33
2017-12-23T11:24:26.155Z,43.03
2017-12-23T11:26:51.915Z,32.10
2017-12-23T11:29:17.667Z,40.93
2017-12-23T11:31:43.416Z,37.23
2017-12-23T11:34:09.163Z,36.90
2017-12-23T11:36:34.943Z,31.40
2017-12-23T11:39:00.695Z,40.47
2017-12-23T11:41:26.456Z,37.60
2017-12-23T11:43:52.214Z,30.27
2017-12-23T11:46:17.983Z,38.40
2017-12-23T11:48:43.740Z,33.23
2017-12-23T11:51:09.491Z,38.70
2017-12-23T11:53:35.239Z,34.93
2017-12-23T11:56:01.291Z,34.80
2017-12-23T11:58:28.007Z,42.13
2017-12-23T12:00:53.775Z,40.10
2017-12-23T12:03:19.540Z,31.33
2017-12-23T12:05:45.295Z,35.47
2017-12-23T12:08:11.063Z,31.77
2017-12-23T12:10:36.807Z,38.60
2017-12-23T12:13:02.576Z,39.43
2017-12-23T12:15:28.332Z,36.70
2017-12-23T12:17:54.094Z,32.63
2017-12-23T12:20:19.839Z,41.43
2017-12-23T12:22:45.598Z,39.23
2017-12-23T12:25:11.342Z,39.70
2017-12-23T12:27:37.096Z,46.53
2017-12-23T12:30:02.857Z,50.13
2017-12-23T12:32:28.613Z,41.17
2017-12-23T12:34:54.373Z,42.97
2017-12-23T12:37:20.131Z,43.77
2017-12-23T12:39:45.882Z,46.53
2017-12-23T12:42:11.651Z,42.83
2017-12-23T12:44:37.407Z,41.50
2017-12-23T12:47:03.171Z,42.67
2017-12-23T12:49:35.931Z,47.90
2017-12-23T12:52:02.692Z,33.90
2017-12-23T12:54:28.441Z,35.08
2017-12-23T12:56:54.241Z,36.80
2017-12-23T12:59:19.978Z,47.97
2017-12-23T13:01:45.755Z,42.07
2017-12-23T13:04:11.506Z,37.03
2017-12-23T13:06:37.262Z,40.13
2017-12-23T13:09:03.027Z,45.37
2017-12-23T13:11:28.795Z,40.40
2017-12-23T13:13:54.704Z,46.33
2017-12-23T13:16:20.488Z,40.50
2017-12-23T13:18:46.242Z,34.03
2017-12-23T13:21:11.995Z,35.30
2017-12-23T13:23:37.766Z,34.40
2017-12-23T13:26:03.532Z,35.97
2017-12-23T13:28:29.302Z,30.10
2017-12-23T13:30:55.055Z,34.37
2017-12-23T13:33:20.816Z,28.73
2017-12-23T13:35:46.580Z,28.57
2017-12-23T13:38:12.353Z,37.43
2017-12-23T13:40:38.119Z,29.57
2017-12-23T13:43:03.875Z,27.30
2017-12-23T13:45:29.618Z,33.97
2017-12-23T13:47:55.368Z,35.67
2017-12-23T13:50:21.146Z,22.60
2017-12-23T13:52:46.903Z,36.13
2017-12-23T13:55:12.664Z,32.23
2017-12-23T13:57:38.433Z,37.23
2017-12-23T14:00:04.201Z,32.67
2017-12-23T14:02:29.970Z,39.50
2017-12-23T14:04:55.726Z,41.20
2017-12-23T14:07:21.484Z,34.83
2017-12-23T14:09:47.248Z,36.10
2017-12-23T14:12:13.036Z,45.83
2017-12-23T14:14:38.795Z,35.03
2017-12-23T14:17:04.549Z,35.27
2017-12-23T14:19:30.307Z,35.30
2017-12-23T14:21:56.063Z,38.37
2017-12-23T14:24:21.845Z,38.53
2017-12-23T14:26:47.598Z,51.40
2017-12-23T14:29:13.352Z,45.50
2017-12-23T14:31:39.108Z,45.40
2017-12-23T14:34:05.987Z,46.27
2017-12-23T14:36:31.767Z,38.58
2017-12-23T14:38:57.522Z,42.97
2017-12-23T14:41:24.330Z,50.53
2017-12-23T14:43:50.083Z,57.38
2017-12-23T14:46:15.820Z,51.77
2017-12-23T14:48:41.600Z,44.03
2017-12-23T14:51:07.361Z,52.93
2017-12-23T14:53:33.110Z,48.47
2017-12-23T14:55:58.867Z,56.00
2017-12-23T14:58:24.624Z,43.37
2017-12-23T15:00:50.375Z,49.40
2017-12-23T15:03:16.124Z,57.97
2017-12-23T15:05:41.919Z,55.13
2017-12-23T15:08:07.675Z,55.67
2017-12-23T15:10:33.443Z,49.70
2017-12-23T15:12:59.195Z,46.27
2017-12-23T15:15:24.972Z,57.60
2017-12-23T15:17:50.730Z,53.80
2017-12-23T15:20:16.479Z,57.20
2017-12-23T15:22:42.233Z,43.10
2017-12-23T15:25:08.004Z,43.43
2017-12-23T15:27:33.774Z,36.50
2017-12-23T15:29:59.527Z,38.10
2017-12-23T15:32:25.348Z,38.63
2017-12-23T15:34:51.106Z,39.20
2017-12-23T15:37:16.867Z,37.77
2017-12-23T15:39:42.627Z,42.53
2017-12-23T15:42:08.412Z,33.10
2017-12-23T15:44:34.171Z,35.77
2017-12-23T15:46:59.943Z,40.70
2017-12-23T15:49:25.703Z,37.63
2017-12-23T15:51:51.458Z,37.70
2017-12-23T15:54:17.219Z,39.10
2017-12-23T15:56:42.997Z,45.17
2017-12-23T15:59:08.756Z,32.00
2017-12-23T16:01:34.528Z,41.77
2017-12-23T16:04:00.291Z,34.53
2017-12-23T16:06:26.060Z,29.97
2017-12-23T16:08:51.794Z,33.37
2017-12-23T16:11:17.555Z,35.73
2017-12-23T16:13:43.314Z,30.83
2017-12-23T16:16:09.080Z,32.67
2017-12-23T16:18:34.840Z,25.80
2017-12-23T16:21:00.590Z,32.63
2017-12-23T16:23:26.351Z,29.43
2017-12-23T16:25:52.140Z,29.17
2017-12-23T16:28:17.886Z,32.07
2017-12-23T16:30:43.632Z,32.67
2017-12-23T16:33:09.396Z,23.57
2017-12-23T16:35:35.143Z,27.70
2017-12-23T16:38:00.901Z,25.60
2017-12-23T16:40:26.730Z,32.20
2017-12-23T16:42:52.583Z,30.67
2017-12-23T16:45:18.344Z,29.53
2017-12-23T16:47:44.128Z,28.73
2017-12-23T16:50:09.887Z,27.17
2017-12-23T16:52:35.647Z,27.80
2017-12-23T16:55:01.409Z,26.67
2017-12-23T16:57:27.191Z,26.33
2017-12-23T16:59:52.967Z,25.07
2017-12-23T17:02:18.730Z,23.03
2017-12-23T17:04:44.500Z,24.63
2017-12-23T17:07:10.263Z,27.57
2017-12-23T17:09:36.036Z,29.20
2017-12-23T17:12:02.576Z,26.95
2017-12-23T17:14:28.340Z,25.77
2017-12-23T17:16:54.103Z,24.90
2017-12-23T17:19:19.859Z,25.27
2017-12-23T17:21:45.620Z,24.37
2017-12-23T17:24:11.371Z,26.07
2017-12-23T17:26:37.535Z,24.93
2017-12-23T17:29:15.719Z,27.45
2017-12-23T17:31:41.477Z,25.83
2017-12-23T17:34:07.235Z,26.10
2017-12-23T17:36:33.087Z,25.17
2017-12-23T17:38:58.866Z,25.63
2017-12-23T17:41:24.627Z,27.27
2017-12-23T17:43:50.383Z,25.87
2017-12-23T17:46:16.156Z,27.43
2017-12-23T17:48:41.916Z,23.07
2017-12-23T17:51:07.676Z,26.83
2017-12-23T17:53:33.431Z,24.30
2017-12-23T17:55:59.193Z,22.53
2017-12-23T17:58:24.946Z,23.50
2017-12-23T18:00:50.699Z,26.63
2017-12-23T18:03:16.468Z,26.70
2017-12-23T18:05:42.214Z,23.77
2017-12-23T18:08:07.976Z,29.77
2017-12-23T18:10:33.727Z,26.77
2017-12-23T18:12:59.485Z,26.07
2017-12-23T18:15:25.251Z,23.27
2017-12-23T18:17:51.046Z,24.00
2017-12-23T18:20:16.806Z,21.87
2017-12-23T18:22:42.592Z,29.10
2017-12-23T18:25:08.364Z,22.43
2017-12-23T18:27:34.145Z,23.63
2017-12-23T18:29:59.895Z,24.33
2017-12-23T18:32:25.660Z,22.60
2017-12-23T18:34:51.419Z,21.77
2017-12-23T18:37:17.188Z,22.47
2017-12-23T18:39:42.957Z,28.33
2017-12-23T18:42:08.751Z,21.67
2017-12-23T18:44:34.498Z,25.33
2017-12-23T18:47:00.260Z,26.20
2017-12-23T18:49:26.040Z,22.50
2017-12-23T18:51:51.787Z,19.43
2017-12-23T18:54:17.552Z,14.63
2017-12-23T18:56:43.303Z,21.60
2017-12-23T18:59:09.082Z,21.97
2017-12-23T19:01:34.835Z,20.83
2017-12-23T19:04:00.583Z,21.90
2017-12-23T19:06:26.331Z,21.27
2017-12-23T19:08:52.085Z,19.97
2017-12-23T19:11:17.847Z,23.20
2017-12-23T19:13:43.615Z,19.17
2017-12-23T19:16:09.370Z,21.47
2017-12-23T19:18:35.119Z,19.27
2017-12-23T19:21:00.868Z,21.07
2017-12-23T19:23:26.631Z,22.83
2017-12-23T19:25:52.403Z,23.80
2017-12-23T19:28:18.179Z,22.33
2017-12-23T19:30:43.927Z,24.27
2017-12-23T19:33:09.669Z,24.47
2017-12-23T19:35:35.423Z,21.67
2017-12-23T19:38:01.183Z,22.40
2017-12-23T19:40:26.952Z,22.90
2017-12-23T19:42:52.720Z,21.53
2017-12-23T19:45:18.491Z,19.23
2017-12-23T19:47:44.255Z,31.87
2017-12-23T19:50:10.028Z,20.73
2017-12-23T19:52:35.775Z,23.90
2017-12-23T19:55:01.537Z,26.43
2017-12-23T19:57:27.301Z,26.97
2017-12-23T19:59:53.074Z,24.60
2017-12-23T20:02:18.843Z,26.53
2017-12-23T20:04:44.598Z,28.03
2017-12-23T20:07:10.352Z,22.67
2017-12-23T20:09:36.103Z,26.50
2017-12-23T20:12:01.863Z,24.43
2017-12-23T20:14:27.615Z,24.97
2017-12-23T20:16:53.359Z,21.80
2017-12-23T20:19:19.108Z,25.83
2017-12-23T20:21:44.871Z,22.33
2017-12-23T20:24:10.637Z,20.70
2017-12-23T20:26:36.415Z,25.40
2017-12-23T20:29:02.176Z,22.10
2017-12-23T20:31:27.953Z,19.30
2017-12-23T20:33:53.703Z,18.73
2017-12-23T20:36:19.472Z,18.80
2017-12-23T20:38:45.228Z,21.87
2017-12-23T20:41:10.992Z,17.57
2017-12-23T20:43:36.752Z,16.17
2017-12-23T20:46:02.507Z,17.20
2017-12-23T20:48:28.291Z,17.73
2017-12-23T20:50:54.036Z,22.80
2017-12-23T20:53:19.812Z,19.53
2017-12-23T20:55:45.574Z,21.83
2017-12-23T20:58:11.347Z,18.33
2017-12-23T21:00:37.163Z,18.33
2017-12-23T21:03:02.905Z,20.50
2017-12-23T21:05:28.667Z,17.77
2017-12-23T21:07:54.430Z,20.30
2017-12-23T21:10:20.188Z,18.20
2017-12-23T21:12:45.960Z,18.50
2017-12-23T21:15:11.720Z,19.87
2017-12-23T21:17:37.480Z,16.17
2017-12-23T21:20:03.305Z,15.83
2017-12-23T21:22:29.079Z,20.37
2017-12-23T21:24:54.847Z,17.77
2017-12-23T21:27:20.591Z,17.30
2017-12-23T21:29:46.360Z,17.47
2017-12-23T21:32:12.104Z,20.93
2017-12-23T21:34:37.866Z,16.13
2017-12-23T21:37:03.626Z,15.17
2017-12-23T21:39:29.390Z,15.80
2017-12-23T21:41:55.148Z,19.30
2017-12-23T21:44:20.917Z,20.73
2017-12-23T21:46:46.687Z,17.50
2017-12-23T21:49:12.463Z,18.57
2017-12-23T21:51:38.216Z,18.10
2017-12-23T21:54:03.980Z,16.37
2017-12-23T21:56:29.739Z,17.00
2017-12-23T21:58:55.499Z,21.50
2017-12-23T22:01:21.243Z,18.47
2017-12-23T22:03:47.011Z,15.70
2017-12-23T22:06:12.770Z,24.30
2017-12-23T22:08:38.513Z,18.83
2017-12-23T22:11:04.275Z,16.40
2017-12-23T22:13:30.039Z,18.83
2017-12-23T22:15:55.806Z,18.50
2017-12-23T22:18:21.558Z,19.90
2017-12-23T22:20:47.324Z,17.70
2017-12-23T22:23:13.080Z,17.33
2017-12-23T22:25:38.852Z,22.17
2017-12-23T22:28:04.611Z,16.57
2017-12-23T22:30:30.380Z,16.83
2017-12-23T22:32:56.124Z,18.70
2017-12-23T22:35:21.888Z,19.57
2017-12-23T22:37:47.661Z,20.43
2017-12-23T22:40:13.443Z,16.53
2017-12-23T22:42:39.211Z,20.40
2017-12-23T22:45:04.981Z,16.17
2017-12-23T22:47:30.743Z,16.20
2017-12-23T22:49:56.508Z,19.30
2017-12-23T22:52:22.260Z,19.43
2017-12-23T22:54:47.999Z,19.67
2017-12-23T22:57:13.770Z,21.87
2017-12-23T22:59:39.536Z,19.07
2017-12-23T23:02:05.318Z,17.77
2017-12-23T23:04:31.075Z,17.73
2017-12-23T23:06:56.843Z,17.63
2017-12-23T23:09:22.597Z,15.07
2017-12-23T23:11:48.351Z,20.63
2017-12-23T23:14:14.095Z,18.80
2017-12-23T23:16:39.860Z,21.20
2017-12-23T23:19:05.611Z,20.73
2017-12-23T23:21:31.376Z,21.80
2017-12-23T23:23:57.130Z,17.83
2017-12-23T23:26:22.910Z,21.37
2017-12-23T23:28:48.661Z,21.77
2017-12-23T23:31:14.398Z,21.60
2017-12-23T23:33:40.163Z,24.63
2017-12-23T23:36:05.908Z,19.40
2017-12-23T23:38:31.681Z,28.87
2017-12-23T23:40:57.447Z,22.43
2017-12-23T23:43:23.276Z,25.97
2017-12-23T23:45:49.036Z,24.90
2017-12-23T23:48:14.796Z,27.23
2017-12-23T23:50:40.551Z,24.23
2017-12-23T23:53:06.319Z,25.77
2017-12-23T23:55:32.068Z,23.80
2017-12-23T23:57:57.835Z,25.30
